logo
Search for airport 
image banner adimage banner adimage banner ad
image banner ad

LKKB - Kbely

Located in Kbely, Czech Republic

ICAO - LKKB, IATA -

Data provided by Airmate  

General information

Coordinates: N50°7'17" E14°32'37"
Elevation is 939 feet MSL.
Magnetic variation is 4° East
View others Airports in Prague (capital city)

Operational data

Special qualification required
Current time UTC:
Current local time:
Weather
METAR: LKKB 200700Z 28010KT 9999 SCT012 BKN024 06/03 Q1007 NOSIG
TAF: TAF LKKB 200500Z 2006/2106 23012KT 9999 BKN035 TEMPO 2006/2013 23015G28KT 6000 RA BKN010 OVC022 BECMG 2007/2009 33014KT PROB40 TEMPO 2013/2017 34016G26KT 5000 SHRA BKN015 BKN028TCU BECMG 2016/2018 32006KT CAVOK BECMG 2022/2100 VRB02KT
View NOTAMs / SUP AIP / TFR affecting this airport [VIEW]
Communications frequencies: [VIEW]

Runways:

RWY identifierQFULength (ft)Width (ft)SurfaceLDA (ft)
066562161ASPH
246562161ASPH

Airport contact information

Address: Kbely Czech Republic

Other aviation service providers

Flight schools

A-Prim-Air, S.R.O.

A-Prim-Air, S.R.O.
+420286028230

Aerotaxi

Aerotaxi
+420602220670

Blue Sky Aviation S.R.O.

Blue Sky Aviation S.R.O.

M-Air Academy S.R.O.

M-Air Academy S.R.O.
pilot@flymair.com+420776737019
+420777421787

Mavisys S. R. O.

Mavisys S. R. O.

Aviation club (not for profit)

Aeroklub Praha - Letňany

Aeroklub Praha - Letňany
posta@akletnany.cz+420732175696
Rated:
View ratings:
[VIEW]

Satellite view of LKKB